sensor_id;sensor_type;location;lat;lon;timestamp;P1;durP1;ratioP1;P2;durP2;ratioP2
11000;SDS011;5553;48.506;8.870;2023-05-23T00:02:07;22.60;;;16.20;;
11000;SDS011;5553;48.506;8.870;2023-05-23T00:07:07;19.47;;;14.57;;
11000;SDS011;5553;48.506;8.870;2023-05-23T00:09:40;17.00;;;13.20;;
11000;SDS011;5553;48.506;8.870;2023-05-23T00:12:08;15.67;;;13.80;;
11000;SDS011;5553;48.506;8.870;2023-05-23T00:14:37;19.07;;;14.33;;
11000;SDS011;5553;48.506;8.870;2023-05-23T00:17:08;21.03;;;15.80;;
11000;SDS011;5553;48.506;8.870;2023-05-23T00:19:37;25.50;;;18.77;;
11000;SDS011;5553;48.506;8.870;2023-05-23T00:22:05;20.93;;;15.40;;
11000;SDS011;5553;48.506;8.870;2023-05-23T00:27:04;19.30;;;15.03;;
11000;SDS011;5553;48.506;8.870;2023-05-23T00:29:33;21.90;;;16.10;;
11000;SDS011;5553;48.506;8.870;2023-05-23T00:32:03;17.60;;;15.30;;
11000;SDS011;5553;48.506;8.870;2023-05-23T00:39:32;19.70;;;14.60;;
11000;SDS011;5553;48.506;8.870;2023-05-23T00:42:02;22.60;;;15.83;;
11000;SDS011;5553;48.506;8.870;2023-05-23T00:44:36;15.20;;;13.37;;
11000;SDS011;5553;48.506;8.870;2023-05-23T00:47:04;18.37;;;14.23;;
11000;SDS011;5553;48.506;8.870;2023-05-23T00:49:39;19.40;;;14.70;;
11000;SDS011;5553;48.506;8.870;2023-05-23T00:52:07;20.37;;;16.00;;
11000;SDS011;5553;48.506;8.870;2023-05-23T00:59:30;20.37;;;15.03;;
11000;SDS011;5553;48.506;8.870;2023-05-23T01:02:02;23.13;;;15.73;;
11000;SDS011;5553;48.506;8.870;2023-05-23T01:04:40;20.03;;;15.90;;
11000;SDS011;5553;48.506;8.870;2023-05-23T01:07:09;20.67;;;14.17;;
11000;SDS011;5553;48.506;8.870;2023-05-23T01:09:38;18.30;;;14.90;;
11000;SDS011;5553;48.506;8.870;2023-05-23T01:12:13;17.20;;;14.70;;
11000;SDS011;5553;48.506;8.870;2023-05-23T01:14:58;30.63;;;14.90;;
11000;SDS011;5553;48.506;8.870;2023-05-23T01:17:37;21.30;;;16.17;;
11000;SDS011;5553;48.506;8.870;2023-05-23T01:20:14;23.17;;;16.10;;
11000;SDS011;5553;48.506;8.870;2023-05-23T01:25:54;15.63;;;13.43;;
11000;SDS011;5553;48.506;8.870;2023-05-23T01:28:47;17.17;;;14.20;;
11000;SDS011;5553;48.506;8.870;2023-05-23T01:31:23;21.90;;;16.10;;
11000;SDS011;5553;48.506;8.870;2023-05-23T01:33:56;16.00;;;13.17;;
11000;SDS011;5553;48.506;8.870;2023-05-23T01:38:55;17.13;;;12.70;;
11000;SDS011;5553;48.506;8.870;2023-05-23T01:41:24;19.13;;;13.23;;
11000;SDS011;5553;48.506;8.870;2023-05-23T01:43:57;18.90;;;14.50;;
11000;SDS011;5553;48.506;8.870;2023-05-23T01:48:56;20.50;;;16.47;;
11000;SDS011;5553;48.506;8.870;2023-05-23T01:51:26;23.00;;;17.03;;
11000;SDS011;5553;48.506;8.870;2023-05-23T01:53:55;25.77;;;16.40;;
11000;SDS011;5553;48.506;8.870;2023-05-23T01:58:59;22.83;;;17.10;;
11000;SDS011;5553;48.506;8.870;2023-05-23T02:01:28;21.00;;;14.70;;
11000;SDS011;5553;48.506;8.870;2023-05-23T02:03:57;20.90;;;15.07;;
11000;SDS011;5553;48.506;8.870;2023-05-23T02:06:27;22.33;;;16.30;;
11000;SDS011;5553;48.506;8.870;2023-05-23T02:08:55;21.10;;;16.37;;
11000;SDS011;5553;48.506;8.870;2023-05-23T02:11:24;21.73;;;16.03;;
11000;SDS011;5553;48.506;8.870;2023-05-23T02:13:52;20.87;;;14.90;;
11000;SDS011;5553;48.506;8.870;2023-05-23T02:16:25;21.57;;;16.60;;
11000;SDS011;5553;48.506;8.870;2023-05-23T02:18:56;19.53;;;15.40;;
11000;SDS011;5553;48.506;8.870;2023-05-23T02:21:26;20.37;;;16.13;;
11000;SDS011;5553;48.506;8.870;2023-05-23T02:23:59;23.80;;;16.30;;
11000;SDS011;5553;48.506;8.870;2023-05-23T02:26:30;20.53;;;15.30;;
11000;SDS011;5553;48.506;8.870;2023-05-23T02:28:59;22.57;;;17.07;;
11000;SDS011;5553;48.506;8.870;2023-05-23T02:31:30;26.80;;;17.40;;
11000;SDS011;5553;48.506;8.870;2023-05-23T02:33:58;17.77;;;15.03;;
11000;SDS011;5553;48.506;8.870;2023-05-23T02:36:27;22.30;;;17.00;;
11000;SDS011;5553;48.506;8.870;2023-05-23T02:38:57;20.70;;;16.80;;
11000;SDS011;5553;48.506;8.870;2023-05-23T02:41:25;20.53;;;15.57;;
11000;SDS011;5553;48.506;8.870;2023-05-23T02:43:56;22.50;;;15.63;;
11000;SDS011;5553;48.506;8.870;2023-05-23T02:46:25;25.73;;;17.93;;
11000;SDS011;5553;48.506;8.870;2023-05-23T02:48:56;22.30;;;17.10;;
11000;SDS011;5553;48.506;8.870;2023-05-23T02:51:26;24.73;;;18.00;;
11000;SDS011;5553;48.506;8.870;2023-05-23T02:53:57;26.60;;;18.53;;
11000;SDS011;5553;48.506;8.870;2023-05-23T02:58:57;29.60;;;20.30;;
11000;SDS011;5553;48.506;8.870;2023-05-23T03:01:28;24.93;;;18.53;;
11000;SDS011;5553;48.506;8.870;2023-05-23T03:04:02;25.07;;;18.20;;
11000;SDS011;5553;48.506;8.870;2023-05-23T03:06:32;26.40;;;19.00;;
11000;SDS011;5553;48.506;8.870;2023-05-23T03:09:01;25.67;;;17.70;;
11000;SDS011;5553;48.506;8.870;2023-05-23T03:11:30;27.90;;;19.83;;
11000;SDS011;5553;48.506;8.870;2023-05-23T03:13:58;35.60;;;21.03;;
11000;SDS011;5553;48.506;8.870;2023-05-23T03:16:26;30.23;;;21.10;;
11000;SDS011;5553;48.506;8.870;2023-05-23T03:18:55;31.47;;;20.07;;
11000;SDS011;5553;48.506;8.870;2023-05-23T03:21:29;32.43;;;19.97;;
11000;SDS011;5553;48.506;8.870;2023-05-23T03:23:59;36.13;;;21.50;;
11000;SDS011;5553;48.506;8.870;2023-05-23T03:26:27;31.27;;;21.67;;
11000;SDS011;5553;48.506;8.870;2023-05-23T03:28:58;31.20;;;20.10;;
11000;SDS011;5553;48.506;8.870;2023-05-23T03:31:27;26.23;;;16.90;;
11000;SDS011;5553;48.506;8.870;2023-05-23T03:33:56;27.30;;;19.00;;
11000;SDS011;5553;48.506;8.870;2023-05-23T03:36:25;25.53;;;19.50;;
11000;SDS011;5553;48.506;8.870;2023-05-23T03:38:56;31.40;;;21.27;;
11000;SDS011;5553;48.506;8.870;2023-05-23T03:41:24;29.03;;;20.97;;
11000;SDS011;5553;48.506;8.870;2023-05-23T03:43:53;32.30;;;20.90;;
11000;SDS011;5553;48.506;8.870;2023-05-23T03:48:49;38.87;;;23.40;;
11000;SDS011;5553;48.506;8.870;2023-05-23T03:51:18;33.70;;;24.13;;
11000;SDS011;5553;48.506;8.870;2023-05-23T03:53:49;38.10;;;26.70;;
11000;SDS011;5553;48.506;8.870;2023-05-23T03:56:22;35.80;;;24.83;;
11000;SDS011;5553;48.506;8.870;2023-05-23T03:58:50;37.33;;;24.33;;
11000;SDS011;5553;48.506;8.870;2023-05-23T04:01:19;37.80;;;23.80;;
11000;SDS011;5553;48.506;8.870;2023-05-23T04:03:47;35.67;;;23.77;;
11000;SDS011;5553;48.506;8.870;2023-05-23T04:06:17;34.67;;;23.33;;
11000;SDS011;5553;48.506;8.870;2023-05-23T04:08:47;31.83;;;21.50;;
11000;SDS011;5553;48.506;8.870;2023-05-23T04:11:15;31.97;;;20.90;;
11000;SDS011;5553;48.506;8.870;2023-05-23T04:13:46;34.40;;;22.70;;
11000;SDS011;5553;48.506;8.870;2023-05-23T04:16:17;32.20;;;24.43;;
11000;SDS011;5553;48.506;8.870;2023-05-23T04:18:47;31.10;;;20.63;;
11000;SDS011;5553;48.506;8.870;2023-05-23T04:21:16;38.00;;;23.63;;
11000;SDS011;5553;48.506;8.870;2023-05-23T04:23:50;33.03;;;20.93;;
11000;SDS011;5553;48.506;8.870;2023-05-23T04:26:19;36.00;;;23.13;;
11000;SDS011;5553;48.506;8.870;2023-05-23T04:28:52;32.20;;;23.17;;
11000;SDS011;5553;48.506;8.870;2023-05-23T04:31:21;40.30;;;25.37;;
11000;SDS011;5553;48.506;8.870;2023-05-23T04:33:50;32.67;;;22.73;;
11000;SDS011;5553;48.506;8.870;2023-05-23T04:36:18;36.90;;;26.30;;
11000;SDS011;5553;48.506;8.870;2023-05-23T04:38:48;40.40;;;26.80;;
11000;SDS011;5553;48.506;8.870;2023-05-23T04:41:16;39.40;;;27.43;;
11000;SDS011;5553;48.506;8.870;2023-05-23T04:43:47;59.73;;;32.50;;
11000;SDS011;5553;48.506;8.870;2023-05-23T04:46:21;57.20;;;32.77;;
11000;SDS011;5553;48.506;8.870;2023-05-23T04:48:52;52.93;;;32.50;;
11000;SDS011;5553;48.506;8.870;2023-05-23T04:51:22;53.33;;;32.60;;
11000;SDS011;5553;48.506;8.870;2023-05-23T04:53:54;40.20;;;27.37;;
11000;SDS011;5553;48.506;8.870;2023-05-23T04:56:22;37.00;;;25.57;;
11000;SDS011;5553;48.506;8.870;2023-05-23T04:58:52;44.80;;;28.30;;
11000;SDS011;5553;48.506;8.870;2023-05-23T05:03:55;52.60;;;30.00;;
11000;SDS011;5553;48.506;8.870;2023-05-23T05:06:23;47.47;;;31.20;;
11000;SDS011;5553;48.506;8.870;2023-05-23T05:08:52;44.93;;;28.27;;
11000;SDS011;5553;48.506;8.870;2023-05-23T05:11:21;59.07;;;36.27;;
11000;SDS011;5553;48.506;8.870;2023-05-23T05:13:50;55.57;;;34.00;;
11000;SDS011;5553;48.506;8.870;2023-05-23T05:16:20;54.90;;;33.73;;
11000;SDS011;5553;48.506;8.870;2023-05-23T05:18:51;76.97;;;43.80;;
11000;SDS011;5553;48.506;8.870;2023-05-23T05:21:19;69.80;;;40.80;;
11000;SDS011;5553;48.506;8.870;2023-05-23T05:23:48;67.93;;;41.40;;
11000;SDS011;5553;48.506;8.870;2023-05-23T05:26:18;84.03;;;46.50;;
11000;SDS011;5553;48.506;8.870;2023-05-23T05:28:47;85.43;;;48.47;;
11000;SDS011;5553;48.506;8.870;2023-05-23T05:31:15;89.37;;;46.80;;
11000;SDS011;5553;48.506;8.870;2023-05-23T05:33:44;83.63;;;46.40;;
11000;SDS011;5553;48.506;8.870;2023-05-23T05:36:15;81.13;;;44.57;;
11000;SDS011;5553;48.506;8.870;2023-05-23T05:38:44;84.33;;;48.17;;
11000;SDS011;5553;48.506;8.870;2023-05-23T05:41:13;95.00;;;49.43;;
11000;SDS011;5553;48.506;8.870;2023-05-23T05:43:41;93.53;;;52.60;;
11000;SDS011;5553;48.506;8.870;2023-05-23T05:46:09;84.33;;;46.40;;
11000;SDS011;5553;48.506;8.870;2023-05-23T05:48:38;81.20;;;48.43;;
11000;SDS011;5553;48.506;8.870;2023-05-23T05:51:06;75.00;;;45.67;;
11000;SDS011;5553;48.506;8.870;2023-05-23T05:53:37;88.87;;;49.03;;
11000;SDS011;5553;48.506;8.870;2023-05-23T05:56:05;103.00;;;53.20;;
11000;SDS011;5553;48.506;8.870;2023-05-23T05:58:33;91.43;;;52.03;;
11000;SDS011;5553;48.506;8.870;2023-05-23T06:01:01;87.20;;;51.97;;
11000;SDS011;5553;48.506;8.870;2023-05-23T06:03:30;93.37;;;52.40;;
11000;SDS011;5553;48.506;8.870;2023-05-23T06:05:58;90.83;;;52.50;;
11000;SDS011;5553;48.506;8.870;2023-05-23T06:08:26;74.27;;;46.70;;
11000;SDS011;5553;48.506;8.870;2023-05-23T06:10:57;82.13;;;49.80;;
11000;SDS011;5553;48.506;8.870;2023-05-23T06:13:26;84.40;;;48.57;;
11000;SDS011;5553;48.506;8.870;2023-05-23T06:15:54;84.13;;;47.50;;
11000;SDS011;5553;48.506;8.870;2023-05-23T06:18:22;86.50;;;51.10;;
11000;SDS011;5553;48.506;8.870;2023-05-23T06:20:50;88.20;;;49.23;;
11000;SDS011;5553;48.506;8.870;2023-05-23T06:23:19;97.30;;;54.27;;
11000;SDS011;5553;48.506;8.870;2023-05-23T06:25:47;77.77;;;49.83;;
11000;SDS011;5553;48.506;8.870;2023-05-23T06:28:18;75.20;;;48.37;;
11000;SDS011;5553;48.506;8.870;2023-05-23T06:30:46;76.93;;;46.17;;
11000;SDS011;5553;48.506;8.870;2023-05-23T06:33:14;81.03;;;49.20;;
11000;SDS011;5553;48.506;8.870;2023-05-23T06:35:43;77.13;;;43.93;;
11000;SDS011;5553;48.506;8.870;2023-05-23T06:38:11;74.27;;;45.33;;
11000;SDS011;5553;48.506;8.870;2023-05-23T06:40:39;90.40;;;50.10;;
11000;SDS011;5553;48.506;8.870;2023-05-23T06:43:07;71.43;;;44.87;;
11000;SDS011;5553;48.506;8.870;2023-05-23T06:45:38;68.90;;;44.80;;
11000;SDS011;5553;48.506;8.870;2023-05-23T06:48:06;82.50;;;47.60;;
11000;SDS011;5553;48.506;8.870;2023-05-23T06:50:35;71.50;;;45.13;;
11000;SDS011;5553;48.506;8.870;2023-05-23T06:53:04;67.90;;;45.30;;
11000;SDS011;5553;48.506;8.870;2023-05-23T06:55:33;66.80;;;42.77;;
11000;SDS011;5553;48.506;8.870;2023-05-23T06:58:01;71.50;;;45.90;;
11000;SDS011;5553;48.506;8.870;2023-05-23T07:00:30;69.57;;;44.90;;
11000;SDS011;5553;48.506;8.870;2023-05-23T07:03:01;70.13;;;44.23;;
11000;SDS011;5553;48.506;8.870;2023-05-23T07:05:31;68.10;;;41.97;;
11000;SDS011;5553;48.506;8.870;2023-05-23T07:08:00;66.23;;;45.53;;
11000;SDS011;5553;48.506;8.870;2023-05-23T07:10:28;63.20;;;43.07;;
11000;SDS011;5553;48.506;8.870;2023-05-23T07:12:58;66.20;;;41.13;;
11000;SDS011;5553;48.506;8.870;2023-05-23T07:15:26;64.67;;;41.43;;
11000;SDS011;5553;48.506;8.870;2023-05-23T07:17:55;71.13;;;45.93;;
11000;SDS011;5553;48.506;8.870;2023-05-23T07:20:25;69.40;;;44.40;;
11000;SDS011;5553;48.506;8.870;2023-05-23T07:22:54;61.23;;;41.17;;
11000;SDS011;5553;48.506;8.870;2023-05-23T07:25:22;70.43;;;45.00;;
11000;SDS011;5553;48.506;8.870;2023-05-23T07:27:51;76.43;;;46.93;;
11000;SDS011;5553;48.506;8.870;2023-05-23T07:30:20;63.00;;;41.67;;
11000;SDS011;5553;48.506;8.870;2023-05-23T07:32:49;68.70;;;45.00;;
11000;SDS011;5553;48.506;8.870;2023-05-23T07:35:17;67.90;;;42.63;;
11000;SDS011;5553;48.506;8.870;2023-05-23T07:37:52;60.27;;;41.40;;
11000;SDS011;5553;48.506;8.870;2023-05-23T07:40:21;52.00;;;35.83;;
11000;SDS011;5553;48.506;8.870;2023-05-23T07:42:50;60.83;;;41.97;;
11000;SDS011;5553;48.506;8.870;2023-05-23T07:45:19;66.13;;;41.87;;
11000;SDS011;5553;48.506;8.870;2023-05-23T07:47:48;60.13;;;38.93;;
11000;SDS011;5553;48.506;8.870;2023-05-23T07:50:16;51.20;;;36.83;;
11000;SDS011;5553;48.506;8.870;2023-05-23T07:52:45;55.20;;;37.30;;
11000;SDS011;5553;48.506;8.870;2023-05-23T07:55:17;54.57;;;39.37;;
11000;SDS011;5553;48.506;8.870;2023-05-23T07:57:46;53.87;;;36.77;;
11000;SDS011;5553;48.506;8.870;2023-05-23T08:00:15;56.87;;;40.37;;
11000;SDS011;5553;48.506;8.870;2023-05-23T08:02:44;48.20;;;36.73;;
11000;SDS011;5553;48.506;8.870;2023-05-23T08:05:12;51.60;;;36.53;;
11000;SDS011;5553;48.506;8.870;2023-05-23T08:07:40;50.27;;;37.20;;
11000;SDS011;5553;48.506;8.870;2023-05-23T08:10:08;53.20;;;35.73;;
11000;SDS011;5553;48.506;8.870;2023-05-23T08:12:40;50.07;;;37.00;;
11000;SDS011;5553;48.506;8.870;2023-05-23T08:15:08;45.47;;;33.40;;
11000;SDS011;5553;48.506;8.870;2023-05-23T08:17:37;49.03;;;35.67;;
11000;SDS011;5553;48.506;8.870;2023-05-23T08:20:05;52.90;;;37.27;;
11000;SDS011;5553;48.506;8.870;2023-05-23T08:22:36;48.83;;;37.40;;
11000;SDS011;5553;48.506;8.870;2023-05-23T08:25:04;50.37;;;36.07;;
11000;SDS011;5553;48.506;8.870;2023-05-23T08:27:33;49.23;;;35.50;;
11000;SDS011;5553;48.506;8.870;2023-05-23T08:30:05;50.10;;;35.87;;
11000;SDS011;5553;48.506;8.870;2023-05-23T08:32:35;46.50;;;35.90;;
11000;SDS011;5553;48.506;8.870;2023-05-23T08:35:03;47.50;;;35.20;;
11000;SDS011;5553;48.506;8.870;2023-05-23T08:37:32;43.00;;;32.53;;
11000;SDS011;5553;48.506;8.870;2023-05-23T11:39:53;23.60;;;15.03;;
11000;SDS011;5553;48.506;8.870;2023-05-23T11:42:22;16.90;;;15.07;;
11000;SDS011;5553;48.506;8.870;2023-05-23T11:44:50;15.80;;;14.20;;
11000;SDS011;5553;48.506;8.870;2023-05-23T11:47:19;19.90;;;15.50;;
11000;SDS011;5553;48.506;8.870;2023-05-23T11:49:47;18.53;;;14.80;;
11000;SDS011;5553;48.506;8.870;2023-05-23T11:52:16;17.37;;;15.30;;
11000;SDS011;5553;48.506;8.870;2023-05-23T11:54:44;19.03;;;14.33;;
11000;SDS011;5553;48.506;8.870;2023-05-23T11:57:15;15.00;;;13.50;;
11000;SDS011;5553;48.506;8.870;2023-05-23T11:59:43;15.70;;;13.80;;
11000;SDS011;5553;48.506;8.870;2023-05-23T12:02:12;14.80;;;13.27;;
11000;SDS011;5553;48.506;8.870;2023-05-23T12:04:40;19.20;;;13.77;;
11000;SDS011;5553;48.506;8.870;2023-05-23T12:07:08;14.47;;;12.97;;
11000;SDS011;5553;48.506;8.870;2023-05-23T12:09:40;14.70;;;13.20;;
11000;SDS011;5553;48.506;8.870;2023-05-23T12:12:10;15.80;;;12.40;;
11000;SDS011;5553;48.506;8.870;2023-05-23T12:14:43;13.20;;;11.90;;
11000;SDS011;5553;48.506;8.870;2023-05-23T12:17:11;13.67;;;12.40;;
11000;SDS011;5553;48.506;8.870;2023-05-23T12:19:44;17.03;;;13.63;;
11000;SDS011;5553;48.506;8.870;2023-05-23T12:22:13;14.30;;;12.80;;
11000;SDS011;5553;48.506;8.870;2023-05-23T12:24:44;13.50;;;12.30;;
11000;SDS011;5553;48.506;8.870;2023-05-23T12:27:14;13.70;;;12.30;;
11000;SDS011;5553;48.506;8.870;2023-05-23T12:29:51;12.67;;;11.43;;
11000;SDS011;5553;48.506;8.870;2023-05-23T12:32:30;13.57;;;12.17;;
11000;SDS011;5553;48.506;8.870;2023-05-23T12:34:59;14.13;;;11.90;;
11000;SDS011;5553;48.506;8.870;2023-05-23T12:37:27;14.20;;;12.37;;
11000;SDS011;5553;48.506;8.870;2023-05-23T12:39:56;12.20;;;10.90;;
11000;SDS011;5553;48.506;8.870;2023-05-23T12:42:25;11.70;;;10.60;;
11000;SDS011;5553;48.506;8.870;2023-05-23T12:44:55;11.40;;;10.30;;
11000;SDS011;5553;48.506;8.870;2023-05-23T12:47:24;12.80;;;10.80;;
11000;SDS011;5553;48.506;8.870;2023-05-23T12:49:53;12.37;;;10.17;;
11000;SDS011;5553;48.506;8.870;2023-05-23T12:52:21;10.80;;;9.80;;
11000;SDS011;5553;48.506;8.870;2023-05-23T12:54:50;10.90;;;9.90;;
11000;SDS011;5553;48.506;8.870;2023-05-23T12:57:18;11.47;;;10.40;;
11000;SDS011;5553;48.506;8.870;2023-05-23T12:59:47;9.90;;;8.30;;
11000;SDS011;5553;48.506;8.870;2023-05-23T13:02:18;9.07;;;8.17;;
11000;SDS011;5553;48.506;8.870;2023-05-23T13:04:47;9.80;;;8.90;;
11000;SDS011;5553;48.506;8.870;2023-05-23T13:07:15;8.80;;;7.90;;
11000;SDS011;5553;48.506;8.870;2023-05-23T13:09:43;8.93;;;7.90;;
11000;SDS011;5553;48.506;8.870;2023-05-23T13:12:12;7.30;;;6.70;;
11000;SDS011;5553;48.506;8.870;2023-05-23T13:14:40;8.90;;;8.00;;
11000;SDS011;5553;48.506;8.870;2023-05-23T13:17:09;8.80;;;7.40;;
11000;SDS011;5553;48.506;8.870;2023-05-23T13:19:39;9.47;;;7.37;;
11000;SDS011;5553;48.506;8.870;2023-05-23T13:22:08;7.60;;;6.90;;
11000;SDS011;5553;48.506;8.870;2023-05-23T13:24:37;7.80;;;7.00;;
11000;SDS011;5553;48.506;8.870;2023-05-23T13:27:07;7.33;;;6.63;;
11000;SDS011;5553;48.506;8.870;2023-05-23T13:29:35;6.60;;;5.90;;
11000;SDS011;5553;48.506;8.870;2023-05-23T13:32:04;8.17;;;6.47;;
11000;SDS011;5553;48.506;8.870;2023-05-23T13:34:32;6.67;;;6.07;;
11000;SDS011;5553;48.506;8.870;2023-05-23T13:37:04;6.90;;;6.13;;
11000;SDS011;5553;48.506;8.870;2023-05-23T13:39:32;5.93;;;5.20;;
11000;SDS011;5553;48.506;8.870;2023-05-23T13:42:00;7.40;;;6.20;;
11000;SDS011;5553;48.506;8.870;2023-05-23T13:44:29;5.40;;;4.90;;
11000;SDS011;5553;48.506;8.870;2023-05-23T13:47:05;5.63;;;5.00;;
11000;SDS011;5553;48.506;8.870;2023-05-23T13:49:37;5.03;;;4.50;;
11000;SDS011;5553;48.506;8.870;2023-05-23T13:52:08;5.40;;;4.90;;
11000;SDS011;5553;48.506;8.870;2023-05-23T13:54:36;4.90;;;4.50;;
11000;SDS011;5553;48.506;8.870;2023-05-23T13:57:05;5.50;;;4.97;;
11000;SDS011;5553;48.506;8.870;2023-05-23T13:59:34;5.37;;;4.87;;
11000;SDS011;5553;48.506;8.870;2023-05-23T14:02:02;5.47;;;4.97;;
11000;SDS011;5553;48.506;8.870;2023-05-23T14:04:31;5.87;;;5.27;;
11000;SDS011;5553;48.506;8.870;2023-05-23T14:06:59;5.67;;;5.17;;
11000;SDS011;5553;48.506;8.870;2023-05-23T14:09:30;5.60;;;5.00;;
11000;SDS011;5553;48.506;8.870;2023-05-23T14:11:58;6.03;;;5.53;;
11000;SDS011;5553;48.506;8.870;2023-05-23T14:14:27;5.50;;;5.00;;
11000;SDS011;5553;48.506;8.870;2023-05-23T14:16:56;6.00;;;5.40;;
11000;SDS011;5553;48.506;8.870;2023-05-23T14:19:24;5.63;;;5.13;;
11000;SDS011;5553;48.506;8.870;2023-05-23T14:21:52;5.30;;;4.90;;
11000;SDS011;5553;48.506;8.870;2023-05-23T14:24:20;5.23;;;4.77;;
11000;SDS011;5553;48.506;8.870;2023-05-23T14:26:51;5.83;;;5.33;;
11000;SDS011;5553;48.506;8.870;2023-05-23T14:29:19;5.90;;;5.30;;
11000;SDS011;5553;48.506;8.870;2023-05-23T14:31:48;5.63;;;5.13;;
11000;SDS011;5553;48.506;8.870;2023-05-23T14:34:16;5.60;;;5.10;;
11000;SDS011;5553;48.506;8.870;2023-05-23T14:36:45;6.23;;;5.63;;
11000;SDS011;5553;48.506;8.870;2023-05-23T14:39:13;5.60;;;5.10;;
11000;SDS011;5553;48.506;8.870;2023-05-23T14:41:41;5.50;;;5.00;;
11000;SDS011;5553;48.506;8.870;2023-05-23T14:44:13;7.73;;;5.37;;
11000;SDS011;5553;48.506;8.870;2023-05-23T14:46:41;6.93;;;5.07;;
11000;SDS011;5553;48.506;8.870;2023-05-23T14:49:12;5.30;;;4.70;;
11000;SDS011;5553;48.506;8.870;2023-05-23T14:51:41;5.57;;;5.07;;
11000;SDS011;5553;48.506;8.870;2023-05-23T14:54:09;5.43;;;4.90;;
11000;SDS011;5553;48.506;8.870;2023-05-23T14:56:39;5.33;;;4.83;;
11000;SDS011;5553;48.506;8.870;2023-05-23T14:59:07;7.13;;;5.70;;
11000;SDS011;5553;48.506;8.870;2023-05-23T15:01:38;5.03;;;4.63;;
11000;SDS011;5553;48.506;8.870;2023-05-23T15:04:07;5.80;;;5.30;;
11000;SDS011;5553;48.506;8.870;2023-05-23T15:06:35;6.50;;;5.00;;
11000;SDS011;5553;48.506;8.870;2023-05-23T15:09:04;5.50;;;5.00;;
11000;SDS011;5553;48.506;8.870;2023-05-23T15:11:34;6.57;;;6.07;;
11000;SDS011;5553;48.506;8.870;2023-05-23T15:14:04;5.97;;;5.47;;
11000;SDS011;5553;48.506;8.870;2023-05-23T15:16:32;9.93;;;5.67;;
11000;SDS011;5553;48.506;8.870;2023-05-23T15:19:03;18.37;;;8.83;;
11000;SDS011;5553;48.506;8.870;2023-05-23T15:21:32;6.40;;;5.80;;
11000;SDS011;5553;48.506;8.870;2023-05-23T15:24:00;5.90;;;5.30;;
11000;SDS011;5553;48.506;8.870;2023-05-23T15:26:29;6.20;;;5.10;;
11000;SDS011;5553;48.506;8.870;2023-05-23T15:28:57;9.23;;;6.90;;
11000;SDS011;5553;48.506;8.870;2023-05-23T15:31:25;5.80;;;5.30;;
11000;SDS011;5553;48.506;8.870;2023-05-23T15:33:53;8.77;;;6.67;;
11000;SDS011;5553;48.506;8.870;2023-05-23T15:36:24;5.40;;;4.87;;
11000;SDS011;5553;48.506;8.870;2023-05-23T15:38:52;7.63;;;5.30;;
11000;SDS011;5553;48.506;8.870;2023-05-23T15:41:21;11.90;;;7.90;;
11000;SDS011;5553;48.506;8.870;2023-05-23T15:43:50;6.60;;;5.90;;
11000;SDS011;5553;48.506;8.870;2023-05-23T15:46:18;14.40;;;8.87;;
11000;SDS011;5553;48.506;8.870;2023-05-23T15:48:46;5.63;;;5.10;;
11000;SDS011;5553;48.506;8.870;2023-05-23T15:51:15;5.40;;;4.77;;
11000;SDS011;5553;48.506;8.870;2023-05-23T15:53:46;5.17;;;4.70;;
11000;SDS011;5553;48.506;8.870;2023-05-23T15:56:14;5.40;;;4.90;;
11000;SDS011;5553;48.506;8.870;2023-05-23T15:58:42;5.40;;;4.90;;
11000;SDS011;5553;48.506;8.870;2023-05-23T16:01:11;7.07;;;5.23;;
11000;SDS011;5553;48.506;8.870;2023-05-23T16:03:39;6.10;;;5.50;;
11000;SDS011;5553;48.506;8.870;2023-05-23T16:06:07;6.63;;;6.00;;
11000;SDS011;5553;48.506;8.870;2023-05-23T16:08:35;7.27;;;5.00;;
11000;SDS011;5553;48.506;8.870;2023-05-23T16:11:06;5.47;;;4.97;;
11000;SDS011;5553;48.506;8.870;2023-05-23T16:13:35;5.53;;;5.03;;
11000;SDS011;5553;48.506;8.870;2023-05-23T16:16:03;6.50;;;5.03;;
11000;SDS011;5553;48.506;8.870;2023-05-23T16:18:32;13.33;;;5.70;;
11000;SDS011;5553;48.506;8.870;2023-05-23T16:21:00;5.50;;;5.10;;
11000;SDS011;5553;48.506;8.870;2023-05-23T16:23:29;5.80;;;5.30;;
11000;SDS011;5553;48.506;8.870;2023-05-23T16:25:57;5.00;;;4.60;;
11000;SDS011;5553;48.506;8.870;2023-05-23T16:28:28;6.67;;;5.93;;
11000;SDS011;5553;48.506;8.870;2023-05-23T16:30:56;6.00;;;5.50;;
11000;SDS011;5553;48.506;8.870;2023-05-23T16:33:24;5.20;;;4.60;;
11000;SDS011;5553;48.506;8.870;2023-05-23T16:35:53;5.97;;;5.40;;
11000;SDS011;5553;48.506;8.870;2023-05-23T16:38:21;6.57;;;5.80;;
11000;SDS011;5553;48.506;8.870;2023-05-23T16:40:49;6.93;;;6.33;;
11000;SDS011;5553;48.506;8.870;2023-05-23T16:43:18;6.60;;;5.87;;
11000;SDS011;5553;48.506;8.870;2023-05-23T16:45:49;9.43;;;6.63;;
11000;SDS011;5553;48.506;8.870;2023-05-23T16:48:17;6.30;;;5.73;;
11000;SDS011;5553;48.506;8.870;2023-05-23T16:50:46;8.50;;;7.10;;
11000;SDS011;5553;48.506;8.870;2023-05-23T16:53:14;19.03;;;7.70;;
11000;SDS011;5553;48.506;8.870;2023-05-23T16:55:43;7.97;;;6.43;;
11000;SDS011;5553;48.506;8.870;2023-05-23T16:58:12;8.30;;;6.87;;
11000;SDS011;5553;48.506;8.870;2023-05-23T17:00:40;6.30;;;5.80;;
11000;SDS011;5553;48.506;8.870;2023-05-23T17:03:11;7.60;;;6.50;;
11000;SDS011;5553;48.506;8.870;2023-05-23T17:05:39;7.93;;;6.77;;
11000;SDS011;5553;48.506;8.870;2023-05-23T17:08:08;8.77;;;6.80;;
11000;SDS011;5553;48.506;8.870;2023-05-23T17:10:36;7.70;;;6.60;;
11000;SDS011;5553;48.506;8.870;2023-05-23T17:13:04;9.17;;;6.70;;
11000;SDS011;5553;48.506;8.870;2023-05-23T17:15:33;9.00;;;6.87;;
11000;SDS011;5553;48.506;8.870;2023-05-23T17:18:01;8.60;;;7.30;;
11000;SDS011;5553;48.506;8.870;2023-05-23T17:20:32;8.23;;;7.33;;
11000;SDS011;5553;48.506;8.870;2023-05-23T17:23:00;7.47;;;6.77;;
11000;SDS011;5553;48.506;8.870;2023-05-23T17:25:30;10.20;;;8.17;;
11000;SDS011;5553;48.506;8.870;2023-05-23T17:27:58;9.83;;;7.63;;
11000;SDS011;5553;48.506;8.870;2023-05-23T17:30:26;10.33;;;8.20;;
11000;SDS011;5553;48.506;8.870;2023-05-23T17:32:54;8.77;;;7.87;;
11000;SDS011;5553;48.506;8.870;2023-05-23T17:35:23;9.50;;;8.40;;
11000;SDS011;5553;48.506;8.870;2023-05-23T17:37:53;8.90;;;8.00;;
11000;SDS011;5553;48.506;8.870;2023-05-23T17:40:24;9.60;;;8.70;;
11000;SDS011;5553;48.506;8.870;2023-05-23T17:42:53;10.07;;;8.40;;
11000;SDS011;5553;48.506;8.870;2023-05-23T17:45:21;11.60;;;10.10;;
11000;SDS011;5553;48.506;8.870;2023-05-23T17:47:49;11.13;;;9.53;;
11000;SDS011;5553;48.506;8.870;2023-05-23T17:50:18;11.40;;;10.03;;
11000;SDS011;5553;48.506;8.870;2023-05-23T17:52:46;13.27;;;10.57;;
11000;SDS011;5553;48.506;8.870;2023-05-23T17:55:17;10.97;;;9.83;;
11000;SDS011;5553;48.506;8.870;2023-05-23T17:57:46;11.93;;;9.23;;
11000;SDS011;5553;48.506;8.870;2023-05-23T18:00:15;11.13;;;9.93;;
11000;SDS011;5553;48.506;8.870;2023-05-23T18:02:43;12.80;;;9.70;;
11000;SDS011;5553;48.506;8.870;2023-05-23T18:05:12;11.50;;;9.13;;
11000;SDS011;5553;48.506;8.870;2023-05-23T18:07:40;12.30;;;10.20;;
11000;SDS011;5553;48.506;8.870;2023-05-23T18:10:09;13.60;;;10.73;;
11000;SDS011;5553;48.506;8.870;2023-05-23T18:12:40;9.80;;;8.80;;
11000;SDS011;5553;48.506;8.870;2023-05-23T18:15:08;11.40;;;9.67;;
11000;SDS011;5553;48.506;8.870;2023-05-23T18:17:37;10.30;;;8.83;;
11000;SDS011;5553;48.506;8.870;2023-05-23T18:20:06;9.80;;;8.60;;
11000;SDS011;5553;48.506;8.870;2023-05-23T18:22:35;12.80;;;8.97;;
11000;SDS011;5553;48.506;8.870;2023-05-23T18:25:05;10.77;;;9.67;;
11000;SDS011;5553;48.506;8.870;2023-05-23T18:27:34;11.50;;;9.73;;
11000;SDS011;5553;48.506;8.870;2023-05-23T18:30:06;10.20;;;9.13;;